Airfield :
LOGIN :

Register | Disclaimer

   EN    FR    IT 

 










Legend :    VFR   Marginal VFR   IFR   Intensive IFR   Very Intensive IFR
Visi :
Ceiling :
>= 8 km
>= 3000ft
5 to 8 km
1000 to 3000 ft
1500m to 5 km
500 to 1000 ft
800 to 1500m
200 to 500 ft
< 800m
< 200 ft
Symbols :   Thunderstorms  Fog  Heavy snow  Heavy precipitations  Wind > 20 kt
SIGMETs :     Misc.  Thunderstorms  Icing  Turbulence  Mountain Waves  Volcanic Ashes






- Airport Elevation : 138 ft
- IATA code : BIO


LEBB - Bilbao

CURRENT METAR :
  • 120400Z 07001KT 9999 RA NSC 20/20 Q1012 NOSIG

EXPIRED METARs :
  • 120330Z VRB01KT CAVOK 20/20 Q1012
  • 120300Z VRB02KT CAVOK 20/20 Q1012
  • 120251Z VRB02KT 3000 SHRA BKN010 SCT030TCU 20/20 Q1012 TEMPO TS
  • 120230Z AUTO VRB02KT CAVOK 20/20 Q1012
  • 120200Z AUTO VRB02KT CAVOK 20/20 Q1012
  • 120130Z AUTO 06005KT 030V100 8000 FEW036 SCT069 20/20 Q1013

TAF TAF LEBB
Valid from the 12 at 00:00 until the 13 at 00:00 UTC


112300Z 1200/1224 13007KT 9999 SCT040 TX31/1214Z TN20/1206Z
TEMPO 1200/1206 3000 -SHRA BR SCT030TCU
PROB40
TEMPO 1200/1206 3000 SHRA TS SCT040CB
PROB40
TEMPO 1215/1224 28015G25KT 3000 SHRA TS BKN030CB



MET'MAP, your aeronautical weather chart ! - Copyright ORBIFLY December 2007 - Disclaimer

ORBIFLY MET'MAP TEAM :

Programming & Development : Alexandra Zaïnal
Concept & original design : Baudouin d'Aumeries
Assistance for programming : Marc-Olivier Méhu
Technical & hardware support : Manuel Goepfert

Contact : metmap@orbifly.com




SOURCES & CREDITS :

   NOAA